createdAt,value
2019-02-21T00:01:46.514Z,30.93
2019-02-21T00:04:15.963Z,31.30
2019-02-21T00:06:45.036Z,33.63
2019-02-21T00:09:14.542Z,30.07
2019-02-21T00:11:43.656Z,30.53
2019-02-21T00:14:12.809Z,28.87
2019-02-21T00:16:42.180Z,29.70
2019-02-21T00:19:11.388Z,29.73
2019-02-21T00:21:40.821Z,28.37
2019-02-21T00:24:09.980Z,29.30
2019-02-21T00:26:39.674Z,26.00
2019-02-21T00:29:09.499Z,34.05
2019-02-21T00:31:40.227Z,31.17
2019-02-21T00:34:10.000Z,28.45
2019-02-21T00:36:39.937Z,32.93
2019-02-21T00:39:09.943Z,34.20
2019-02-21T00:41:40.153Z,29.40
2019-02-21T00:44:10.634Z,29.37
2019-02-21T00:46:40.344Z,30.03
2019-02-21T00:49:11.583Z,28.63
2019-02-21T00:51:41.373Z,34.60
2019-02-21T00:54:11.208Z,29.57
2019-02-21T00:56:41.017Z,30.82
2019-02-21T00:59:11.144Z,29.18
2019-02-21T01:01:40.796Z,33.13
2019-02-21T01:04:10.909Z,31.12
2019-02-21T01:06:40.940Z,27.37
2019-02-21T01:09:10.385Z,33.98
2019-02-21T01:11:39.777Z,28.23
2019-02-21T01:14:09.467Z,31.57
2019-02-21T01:16:38.545Z,24.97
2019-02-21T01:19:08.098Z,29.73
2019-02-21T01:21:38.139Z,33.77
2019-02-21T01:24:07.793Z,28.87
2019-02-21T01:26:36.841Z,29.83
2019-02-21T01:29:06.160Z,30.33
2019-02-21T01:31:35.332Z,29.72
2019-02-21T01:34:04.500Z,34.60
2019-02-21T01:36:34.064Z,32.50
2019-02-21T01:39:04.192Z,29.17
2019-02-21T01:41:33.566Z,33.43
2019-02-21T01:44:04.561Z,32.00
2019-02-21T01:46:33.470Z,29.27
2019-02-21T01:49:02.808Z,31.10
2019-02-21T01:51:31.938Z,28.10
2019-02-21T01:54:01.093Z,27.63
2019-02-21T01:56:30.228Z,26.33
2019-02-21T01:58:59.398Z,28.33
2019-02-21T02:01:28.638Z,31.13
2019-02-21T02:03:58.066Z,26.27
2019-02-21T02:06:27.885Z,25.20
2019-02-21T02:08:56.913Z,31.87
2019-02-21T02:11:26.328Z,25.50
2019-02-21T02:13:55.508Z,27.07
2019-02-21T02:16:24.768Z,25.53
2019-02-21T02:18:54.008Z,27.57
2019-02-21T02:21:23.126Z,28.70
2019-02-21T02:23:52.550Z,23.97
2019-02-21T02:26:21.692Z,27.67
2019-02-21T02:28:51.086Z,22.37
2019-02-21T02:31:23.375Z,23.07
2019-02-21T02:33:51.730Z,28.60
2019-02-21T02:36:20.954Z,26.13
2019-02-21T02:38:50.068Z,25.73
2019-02-21T02:41:19.509Z,25.43
2019-02-21T02:43:49.111Z,27.50
2019-02-21T02:46:18.267Z,34.93
2019-02-21T02:48:47.860Z,29.53
2019-02-21T02:51:17.196Z,30.00
2019-02-21T02:53:46.321Z,26.53
2019-02-21T02:56:15.552Z,23.83
2019-02-21T02:58:46.396Z,30.57
2019-02-21T03:01:16.364Z,28.47
2019-02-21T03:03:45.600Z,31.33
2019-02-21T03:06:15.056Z,32.25
2019-02-21T03:08:44.155Z,35.07
2019-02-21T03:11:13.252Z,30.77
2019-02-21T03:13:42.396Z,31.97
2019-02-21T03:16:11.830Z,29.57
2019-02-21T03:18:41.128Z,34.23
2019-02-21T03:21:10.800Z,28.65
2019-02-21T03:23:40.048Z,31.53
2019-02-21T03:26:09.411Z,24.07
2019-02-21T03:28:38.890Z,24.40
2019-02-21T03:31:08.946Z,26.83
2019-02-21T03:33:38.321Z,31.10
2019-02-21T03:36:07.966Z,31.17
2019-02-21T03:38:37.485Z,35.57
2019-02-21T03:41:06.898Z,26.77
2019-02-21T03:43:36.268Z,26.57
2019-02-21T03:46:05.682Z,26.80
2019-02-21T03:48:34.825Z,28.03
2019-02-21T03:51:04.036Z,28.70
2019-02-21T03:53:33.541Z,29.63
2019-02-21T03:56:02.707Z,27.77
2019-02-21T03:58:31.900Z,27.67
2019-02-21T04:01:02.116Z,33.50
2019-02-21T04:03:31.558Z,24.03
2019-02-21T04:06:01.795Z,32.73
2019-02-21T04:08:32.644Z,28.43
2019-02-21T04:11:01.749Z,30.53
2019-02-21T04:13:30.959Z,33.77
2019-02-21T04:16:00.450Z,31.07
2019-02-21T04:18:30.681Z,31.67
2019-02-21T04:21:00.064Z,33.90
2019-02-21T04:23:29.205Z,31.10
2019-02-21T04:25:58.582Z,30.90
2019-02-21T04:28:27.852Z,32.47
2019-02-21T04:30:56.933Z,36.15
2019-02-21T04:33:26.082Z,31.20
2019-02-21T04:35:55.260Z,29.50
2019-02-21T04:38:24.316Z,32.55
2019-02-21T04:40:53.438Z,29.87
2019-02-21T04:43:22.608Z,29.77
2019-02-21T04:45:51.709Z,32.30
2019-02-21T04:48:20.785Z,33.63
2019-02-21T04:50:50.175Z,27.40
2019-02-21T04:53:20.548Z,31.23
2019-02-21T04:55:50.352Z,32.10
2019-02-21T04:58:20.714Z,25.90
2019-02-21T05:00:50.648Z,31.30
2019-02-21T05:03:21.379Z,31.80
2019-02-21T05:05:53.403Z,31.10
2019-02-21T05:08:23.784Z,34.35
2019-02-21T05:10:52.875Z,35.60
2019-02-21T05:13:22.354Z,33.27
2019-02-21T05:15:51.524Z,33.10
2019-02-21T05:18:21.001Z,30.12
2019-02-21T05:20:51.335Z,32.95
2019-02-21T05:23:21.652Z,28.90
2019-02-21T05:25:51.295Z,35.80
2019-02-21T05:28:29.086Z,36.00
2019-02-21T05:31:06.154Z,32.40
2019-02-21T05:33:53.554Z,27.77
2019-02-21T05:36:40.065Z,32.30
2019-02-21T05:39:23.027Z,31.37
2019-02-21T05:41:58.681Z,34.43
2019-02-21T05:44:40.137Z,38.07
2019-02-21T05:47:22.664Z,38.80
2019-02-21T05:50:09.672Z,44.23
2019-02-21T05:53:04.044Z,32.57
2019-02-21T05:55:45.899Z,37.67
2019-02-21T05:58:34.144Z,35.50
2019-02-21T06:01:17.197Z,42.60
2019-02-21T06:04:04.470Z,37.57
2019-02-21T06:06:43.618Z,45.07
2019-02-21T06:09:31.701Z,43.77
2019-02-21T06:12:20.121Z,40.92
2019-02-21T06:15:20.102Z,44.53
2019-02-21T06:18:05.760Z,42.10
2019-02-21T06:20:43.597Z,37.57
2019-02-21T06:23:19.292Z,47.13
2019-02-21T06:26:25.972Z,40.23
2019-02-21T06:29:05.021Z,40.93
2019-02-21T06:31:34.125Z,42.07
2019-02-21T06:34:03.764Z,36.00
2019-02-21T06:36:33.407Z,42.85
2019-02-21T06:39:02.972Z,49.03
2019-02-21T06:41:32.800Z,40.77
2019-02-21T06:44:02.280Z,38.60
2019-02-21T06:46:31.483Z,37.63
2019-02-21T06:49:00.940Z,45.00
2019-02-21T06:51:31.524Z,45.05
2019-02-21T06:54:01.089Z,56.67
2019-02-21T06:56:30.569Z,46.70
2019-02-21T06:58:59.766Z,46.07
2019-02-21T07:01:29.503Z,45.93
2019-02-21T07:03:59.056Z,47.93
2019-02-21T07:06:31.943Z,48.87
2019-02-21T07:09:00.000Z,48.08
2019-02-21T07:11:29.536Z,48.70
2019-02-21T07:13:58.612Z,47.23
2019-02-21T07:16:27.858Z,42.20
2019-02-21T07:18:56.872Z,52.27
2019-02-21T07:21:26.308Z,39.00
2019-02-21T07:23:56.076Z,44.10
2019-02-21T07:26:27.568Z,49.73
2019-02-21T07:28:58.341Z,47.27
2019-02-21T07:31:29.171Z,41.90
2019-02-21T07:34:01.243Z,42.83
2019-02-21T07:36:29.383Z,39.77
2019-02-21T07:39:13.663Z,37.63
2019-02-21T07:41:29.672Z,34.60
2019-02-21T07:43:58.784Z,38.47
2019-02-21T07:46:27.893Z,43.73
2019-02-21T07:48:57.360Z,36.67
2019-02-21T07:51:26.850Z,36.40
2019-02-21T07:53:57.643Z,40.20
2019-02-21T07:56:27.230Z,36.90
2019-02-21T07:58:57.717Z,39.90
2019-02-21T08:01:27.380Z,34.33
2019-02-21T08:03:57.453Z,40.73
2019-02-21T08:06:28.027Z,38.03
2019-02-21T08:08:57.796Z,34.83
2019-02-21T08:11:27.709Z,36.60
2019-02-21T08:13:59.435Z,41.43
2019-02-21T08:16:29.314Z,35.07
2019-02-21T08:18:58.447Z,38.43
2019-02-21T08:21:29.401Z,39.53
2019-02-21T08:23:59.626Z,41.27
2019-02-21T08:26:28.820Z,45.07
2019-02-21T08:28:58.230Z,36.42
2019-02-21T08:31:28.267Z,42.07
2019-02-21T08:34:30.260Z,40.25
2019-02-21T08:36:59.612Z,42.03
2019-02-21T08:39:28.962Z,42.90
2019-02-21T08:41:59.290Z,48.87
2019-02-21T08:44:29.386Z,43.33
2019-02-21T08:46:59.090Z,49.03
2019-02-21T08:49:29.381Z,54.60
2019-02-21T08:51:59.638Z,41.50
2019-02-21T08:54:29.467Z,42.15
2019-02-21T08:56:59.368Z,43.87
2019-02-21T08:59:29.551Z,43.00
2019-02-21T09:01:59.553Z,42.50
2019-02-21T09:04:29.921Z,43.77
2019-02-21T09:07:00.028Z,49.93
2019-02-21T09:09:29.727Z,42.73
2019-02-21T09:11:59.738Z,43.00
2019-02-21T09:14:29.816Z,50.43
2019-02-21T09:16:59.744Z,42.33
2019-02-21T09:19:30.604Z,43.27
2019-02-21T09:22:00.225Z,52.97
2019-02-21T09:24:38.755Z,45.57
2019-02-21T09:27:02.397Z,53.17
2019-02-21T09:29:31.603Z,41.07
2019-02-21T09:32:01.029Z,45.10
2019-02-21T09:34:30.832Z,46.50
2019-02-21T09:37:01.473Z,40.53
2019-02-21T09:39:31.016Z,48.20
2019-02-21T09:42:00.813Z,47.03
2019-02-21T09:44:30.880Z,44.27
2019-02-21T09:47:01.295Z,45.47
2019-02-21T09:49:31.445Z,46.80
2019-02-21T09:52:01.381Z,46.23
2019-02-21T09:54:31.485Z,49.70
2019-02-21T09:57:12.485Z,47.47
2019-02-21T09:59:32.481Z,48.33
2019-02-21T10:02:01.606Z,49.90
2019-02-21T10:04:32.550Z,48.27
2019-02-21T10:07:02.133Z,52.50
2019-02-21T10:09:32.101Z,49.65
2019-02-21T10:12:02.237Z,53.38
2019-02-21T10:14:32.293Z,47.13
2019-02-21T10:17:02.584Z,58.57
2019-02-21T10:19:32.367Z,48.33
2019-02-21T10:22:04.361Z,49.93
2019-02-21T10:24:32.613Z,50.48
2019-02-21T10:27:05.066Z,55.20
2019-02-21T10:29:34.238Z,51.47
2019-02-21T10:32:03.438Z,51.57
2019-02-21T10:34:42.744Z,46.92
2019-02-21T10:37:05.935Z,54.67
2019-02-21T10:39:35.004Z,54.77
2019-02-21T10:42:04.192Z,48.90
2019-02-21T10:44:33.375Z,59.07
2019-02-21T10:47:03.528Z,52.37
2019-02-21T10:49:33.817Z,61.70
2019-02-21T10:52:03.836Z,48.30
2019-02-21T10:54:34.057Z,60.33
2019-02-21T10:57:03.704Z,56.87
2019-02-21T10:59:32.949Z,49.80
2019-02-21T11:02:02.021Z,57.73
2019-02-21T11:04:31.411Z,56.77
2019-02-21T11:07:01.062Z,53.87
2019-02-21T11:09:30.304Z,53.07
2019-02-21T11:12:00.325Z,51.33
2019-02-21T11:14:29.444Z,52.47
2019-02-21T11:16:58.496Z,53.40
2019-02-21T11:19:29.158Z,58.17
2019-02-21T11:21:58.316Z,53.07
2019-02-21T11:24:27.539Z,54.63
2019-02-21T11:26:57.057Z,59.70
2019-02-21T11:29:26.425Z,55.70
2019-02-21T11:31:55.956Z,52.50
2019-02-21T11:34:25.224Z,56.42
2019-02-21T11:36:55.142Z,53.27
2019-02-21T11:39:24.679Z,46.73
2019-02-21T11:41:53.837Z,57.07
2019-02-21T11:44:22.990Z,54.33
2019-02-21T11:46:53.365Z,54.40
2019-02-21T11:49:22.477Z,46.45
2019-02-21T11:51:51.504Z,49.37
2019-02-21T11:54:26.970Z,44.38
2019-02-21T11:56:51.476Z,38.63
2019-02-21T11:59:20.568Z,42.15
2019-02-21T12:01:49.737Z,39.93
2019-02-21T12:04:19.617Z,40.07
2019-02-21T12:06:49.004Z,40.00
2019-02-21T12:09:18.171Z,37.75
2019-02-21T12:11:47.621Z,36.97
2019-02-21T12:14:16.679Z,39.83
2019-02-21T12:16:46.168Z,34.23
2019-02-21T12:19:15.429Z,34.50
2019-02-21T12:21:44.494Z,37.70
2019-02-21T12:24:13.861Z,35.60
2019-02-21T12:26:43.312Z,34.17
2019-02-21T12:29:12.412Z,35.23
2019-02-21T12:31:41.608Z,36.13
2019-02-21T12:34:10.808Z,33.33
2019-02-21T12:36:39.910Z,32.33
2019-02-21T12:39:10.190Z,32.97
2019-02-21T12:41:40.276Z,40.57
2019-02-21T12:44:10.891Z,37.43
2019-02-21T12:46:40.916Z,37.03
2019-02-21T12:49:10.826Z,34.13
2019-02-21T12:51:41.120Z,36.65
2019-02-21T12:54:10.484Z,36.53
2019-02-21T12:56:41.024Z,36.58
2019-02-21T12:59:11.110Z,41.10
2019-02-21T13:01:40.936Z,41.98
2019-02-21T13:04:11.007Z,31.33
2019-02-21T13:06:41.441Z,34.60
2019-02-21T13:09:11.225Z,31.20
2019-02-21T13:11:42.005Z,34.43
2019-02-21T13:14:11.320Z,31.70
2019-02-21T13:16:41.630Z,34.53
2019-02-21T13:19:11.395Z,30.80
2019-02-21T13:21:41.816Z,34.20
2019-02-21T13:24:11.615Z,30.27
2019-02-21T13:26:41.972Z,33.97
2019-02-21T13:29:11.926Z,34.88
2019-02-21T13:31:42.357Z,31.07
2019-02-21T13:34:12.283Z,32.53
2019-02-21T13:36:42.073Z,28.57
2019-02-21T13:39:12.110Z,35.63
2019-02-21T13:41:42.105Z,30.70
2019-02-21T13:44:13.376Z,34.65
2019-02-21T13:46:42.464Z,27.60
2019-02-21T13:49:12.485Z,29.63
2019-02-21T13:51:43.424Z,30.05
2019-02-21T13:54:12.555Z,31.87
2019-02-21T13:56:41.655Z,29.37
2019-02-21T13:59:11.200Z,33.43
2019-02-21T14:01:40.563Z,29.57
2019-02-21T14:04:09.732Z,34.67
2019-02-21T14:06:39.129Z,34.00
2019-02-21T14:09:08.213Z,31.50
2019-02-21T14:11:37.970Z,31.30
2019-02-21T14:14:07.468Z,31.23
2019-02-21T14:16:46.260Z,39.10
2019-02-21T14:19:07.388Z,33.60
2019-02-21T14:21:36.397Z,34.53
2019-02-21T14:24:06.172Z,35.27
2019-02-21T14:26:35.269Z,39.27
2019-02-21T14:29:04.767Z,37.90
2019-02-21T14:31:34.016Z,34.67
2019-02-21T14:34:03.224Z,39.40
2019-02-21T14:36:32.473Z,34.73
2019-02-21T14:39:02.210Z,38.50
2019-02-21T14:41:31.689Z,40.10
2019-02-21T14:44:00.857Z,36.97
2019-02-21T14:46:33.186Z,35.93
2019-02-21T14:49:02.659Z,33.63
2019-02-21T14:51:32.096Z,40.03
2019-02-21T14:54:01.658Z,41.07
2019-02-21T14:56:31.382Z,36.40
2019-02-21T14:59:00.484Z,32.50
2019-02-21T15:01:29.952Z,37.93
2019-02-21T15:03:59.694Z,36.80
2019-02-21T15:06:28.776Z,39.83
2019-02-21T15:08:58.979Z,34.67
2019-02-21T15:11:28.604Z,39.03
2019-02-21T15:13:58.260Z,37.40
2019-02-21T15:16:28.896Z,35.65
2019-02-21T15:18:58.117Z,35.73
2019-02-21T15:21:27.240Z,36.77
2019-02-21T15:23:56.496Z,38.87
2019-02-21T15:26:26.153Z,35.25
2019-02-21T15:28:55.380Z,37.60
2019-02-21T15:31:24.694Z,37.03
2019-02-21T15:33:54.048Z,48.38
2019-02-21T15:36:23.160Z,40.17
2019-02-21T15:38:52.365Z,38.03
2019-02-21T15:41:22.061Z,39.40
2019-02-21T15:43:51.300Z,37.83
2019-02-21T15:46:20.791Z,37.60
2019-02-21T15:48:50.325Z,40.90
2019-02-21T15:51:19.420Z,39.30
2019-02-21T15:53:48.885Z,42.60
2019-02-21T15:56:19.412Z,38.13
2019-02-21T15:58:49.737Z,41.87
2019-02-21T16:01:18.841Z,42.20
2019-02-21T16:03:48.005Z,38.23
2019-02-21T16:06:17.755Z,39.77
2019-02-21T16:08:47.800Z,43.30
2019-02-21T16:11:17.613Z,39.05
2019-02-21T16:13:46.887Z,41.63
2019-02-21T16:16:17.845Z,52.53
2019-02-21T16:18:47.316Z,38.05
2019-02-21T16:21:16.795Z,47.00
2019-02-21T16:23:46.204Z,42.57
2019-02-21T16:26:15.236Z,44.40
2019-02-21T16:28:44.685Z,41.60
2019-02-21T16:31:14.220Z,41.97
2019-02-21T16:33:43.400Z,49.17
2019-02-21T16:36:12.984Z,40.70
2019-02-21T16:38:42.060Z,46.73
2019-02-21T16:41:11.142Z,46.23
2019-02-21T16:43:40.312Z,42.70
2019-02-21T16:46:09.432Z,42.57
2019-02-21T16:48:38.900Z,46.97
2019-02-21T16:51:07.981Z,43.77
2019-02-21T16:53:37.416Z,47.87
2019-02-21T16:56:06.596Z,42.30
2019-02-21T16:58:35.712Z,43.97
2019-02-21T17:01:05.157Z,42.53
2019-02-21T17:03:34.269Z,48.30
2019-02-21T17:06:03.719Z,50.60
2019-02-21T17:08:32.816Z,46.30
2019-02-21T17:11:01.944Z,52.03
2019-02-21T17:13:31.757Z,43.10
2019-02-21T17:16:01.571Z,49.13
2019-02-21T17:18:32.160Z,46.58
2019-02-21T17:21:01.464Z,46.58
2019-02-21T17:23:30.961Z,51.40
2019-02-21T17:26:00.244Z,45.90
2019-02-21T17:28:29.456Z,35.40
2019-02-21T17:30:58.572Z,43.83
2019-02-21T17:33:27.696Z,41.10
2019-02-21T17:35:57.445Z,39.80
2019-02-21T17:38:28.333Z,40.40
2019-02-21T17:43:27.217Z,41.87
2019-02-21T17:45:57.153Z,44.55
2019-02-21T17:48:27.166Z,49.83
2019-02-21T17:50:57.185Z,40.43
2019-02-21T17:53:28.679Z,40.73
2019-02-21T17:55:58.132Z,38.53
2019-02-21T17:58:27.529Z,41.37
2019-02-21T18:00:57.684Z,39.30
2019-02-21T18:03:27.880Z,39.87
2019-02-21T18:05:57.671Z,42.27
2019-02-21T18:08:28.341Z,39.70
2019-02-21T18:10:57.530Z,38.83
2019-02-21T18:13:27.568Z,40.87
2019-02-21T18:15:57.652Z,42.23
2019-02-21T18:18:28.079Z,42.37
2019-02-21T18:20:57.956Z,45.95
2019-02-21T18:23:28.129Z,46.83
2019-02-21T18:26:26.252Z,60.33
2019-02-21T18:28:55.372Z,51.77
2019-02-21T18:31:25.417Z,51.57
2019-02-21T18:33:54.524Z,50.03
2019-02-21T18:36:23.652Z,55.07
2019-02-21T18:38:53.030Z,50.60
2019-02-21T18:41:22.172Z,50.63
2019-02-21T18:43:52.266Z,53.83
2019-02-21T18:46:22.601Z,55.27
2019-02-21T18:48:52.744Z,54.13
2019-02-21T18:51:21.825Z,54.27
2019-02-21T18:53:54.080Z,63.30
2019-02-21T18:56:23.257Z,50.63
2019-02-21T18:58:52.836Z,54.47
2019-02-21T19:01:22.464Z,58.73
2019-02-21T19:03:52.938Z,57.67
2019-02-21T19:06:22.081Z,57.07
2019-02-21T19:08:52.532Z,53.97
2019-02-21T19:11:21.865Z,57.63
2019-02-21T19:13:50.998Z,58.33
2019-02-21T19:16:19.999Z,60.47
2019-02-21T19:18:49.236Z,58.73
2019-02-21T19:21:18.926Z,61.80
2019-02-21T19:23:48.217Z,62.80
2019-02-21T19:26:17.422Z,66.47
2019-02-21T19:28:46.603Z,61.48
2019-02-21T19:31:18.881Z,62.13
2019-02-21T19:33:48.039Z,61.23
2019-02-21T19:36:17.949Z,66.17
2019-02-21T19:38:47.809Z,59.20
2019-02-21T19:41:17.180Z,66.80
2019-02-21T19:43:47.363Z,57.25
2019-02-21T19:46:17.455Z,60.67
2019-02-21T19:48:47.724Z,64.23
2019-02-21T19:51:17.273Z,65.37
2019-02-21T19:53:46.926Z,64.93
2019-02-21T19:56:16.091Z,57.83
2019-02-21T19:58:45.165Z,65.13
2019-02-21T20:01:14.901Z,67.07
2019-02-21T20:03:43.980Z,65.97
2019-02-21T20:06:13.472Z,62.85
2019-02-21T20:08:44.560Z,60.90
2019-02-21T20:11:15.534Z,67.57
2019-02-21T20:13:44.674Z,59.20
2019-02-21T20:16:14.200Z,60.50
2019-02-21T20:18:43.571Z,55.67
2019-02-21T20:21:12.772Z,62.60
2019-02-21T20:23:41.864Z,63.20
2019-02-21T20:26:18.435Z,61.03
2019-02-21T20:28:42.752Z,62.83
2019-02-21T20:31:11.862Z,68.23
2019-02-21T20:33:41.224Z,70.67
2019-02-21T20:36:10.382Z,65.83
2019-02-21T20:38:39.491Z,66.97
2019-02-21T20:41:08.700Z,60.10
2019-02-21T20:43:37.756Z,61.60
2019-02-21T20:46:06.860Z,68.13
2019-02-21T20:48:36.268Z,63.47
2019-02-21T20:51:05.524Z,63.63
2019-02-21T20:53:35.116Z,72.90
2019-02-21T20:56:06.204Z,60.28
2019-02-21T20:58:35.525Z,63.30
2019-02-21T21:01:06.719Z,58.23
2019-02-21T21:03:36.192Z,55.23
2019-02-21T21:06:05.670Z,50.90
2019-02-21T21:08:42.747Z,47.90
2019-02-21T21:11:06.032Z,58.83
2019-02-21T21:13:35.735Z,70.83
2019-02-21T21:16:04.834Z,58.43
2019-02-21T21:18:34.040Z,62.03
2019-02-21T21:21:03.437Z,61.27
2019-02-21T21:23:32.608Z,59.83
2019-02-21T21:26:02.656Z,68.80
2019-02-21T21:28:31.926Z,76.87
2019-02-21T21:31:01.212Z,66.47
2019-02-21T21:33:31.142Z,63.80
2019-02-21T21:36:00.904Z,62.43
2019-02-21T21:38:31.090Z,71.03
2019-02-21T21:41:01.237Z,70.43
2019-02-21T21:43:30.912Z,61.70
2019-02-21T21:46:00.923Z,61.55
2019-02-21T21:48:31.012Z,65.80
2019-02-21T21:51:01.020Z,72.53
2019-02-21T21:53:31.085Z,70.78
2019-02-21T21:56:01.140Z,69.05
2019-02-21T21:58:31.164Z,71.25
2019-02-21T22:01:01.281Z,73.70
2019-02-21T22:03:31.579Z,70.87
2019-02-21T22:06:01.840Z,76.57
2019-02-21T22:08:31.469Z,73.70
2019-02-21T22:11:01.593Z,75.17
2019-02-21T22:13:31.998Z,70.80
2019-02-21T22:16:01.668Z,91.27
2019-02-21T22:18:31.681Z,77.73
2019-02-21T22:21:00.772Z,78.73
2019-02-21T22:23:30.322Z,76.50
2019-02-21T22:25:59.397Z,74.10
2019-02-21T22:28:28.513Z,84.80
2019-02-21T22:30:58.263Z,73.00
2019-02-21T22:33:27.408Z,80.20
2019-02-21T22:35:56.668Z,75.23
2019-02-21T22:38:25.860Z,74.03
2019-02-21T22:40:55.001Z,76.27
2019-02-21T22:43:25.388Z,79.30
2019-02-21T22:45:54.378Z,69.23
2019-02-21T22:48:23.977Z,69.23
2019-02-21T22:50:53.304Z,73.17
2019-02-21T22:53:22.776Z,75.47
2019-02-21T22:55:51.877Z,73.70
2019-02-21T22:58:21.091Z,75.25
2019-02-21T23:01:23.421Z,78.00
2019-02-21T23:03:59.506Z,81.27
2019-02-21T23:06:36.832Z,84.23
2019-02-21T23:09:09.458Z,80.27
2019-02-21T23:11:39.106Z,91.20
2019-02-21T23:14:08.364Z,78.77
2019-02-21T23:16:37.474Z,85.17
2019-02-21T23:19:06.964Z,79.07
2019-02-21T23:21:36.368Z,86.93
2019-02-21T23:24:05.552Z,74.63
2019-02-21T23:26:34.648Z,90.30
2019-02-21T23:29:04.008Z,78.33
2019-02-21T23:31:33.916Z,83.03
2019-02-21T23:34:04.856Z,83.03
2019-02-21T23:36:34.376Z,83.27
2019-02-21T23:39:05.050Z,84.43
2019-02-21T23:41:34.725Z,88.50
2019-02-21T23:44:04.728Z,87.33
2019-02-21T23:46:35.014Z,84.53
2019-02-21T23:49:04.774Z,85.32
2019-02-21T23:51:34.838Z,85.05
2019-02-21T23:54:04.955Z,81.20
2019-02-21T23:56:34.859Z,86.57
2019-02-21T23:59:04.273Z,81.17
